Time;durP1;ratioP1;P1;durP2;ratioP2;P2;SDS_P1;SDS_P2;PMS_P1;PMS_P2;Temp;Humidity;BMP_temperature;BMP_pressure;BME280_temperature;BME280_humidity;BME280_pressure;Samples;Min_cycle;Max_cycle;Signal;HPM_P1;HPM_P2
2023/04/06 00:01:08;;;;;;;9.87;5.83;;;;;;;;;;5050938;28;20283;-60
2023/04/06 00:03:34;;;;;;;11.30;6.77;;;;;;;;;;5050755;28;20041;-60
2023/04/06 00:06:00;;;;;;;10.90;5.40;;;;;;;;;;5050378;28;20288;-61
2023/04/06 00:08:27;;;;;;;10.47;5.93;;;;;;;;;;5050512;28;20049;-60
2023/04/06 00:10:53;;;;;;;8.30;5.20;;;;;;;;;;5050830;28;20292;-60
2023/04/06 00:13:19;;;;;;;11.03;6.67;;;;;;;;;;5050583;28;20291;-60
2023/04/06 00:15:45;;;;;;;12.13;6.37;;;;;;;;;;5050003;28;20045;-60
2023/04/06 00:18:11;;;;;;;10.63;6.90;;;;;;;;;;5050394;28;20060;-60
2023/04/06 00:20:37;;;;;;;9.67;6.43;;;;;;;;;;5050802;28;20287;-60
2023/04/06 00:23:03;;;;;;;10.50;5.73;;;;;;;;;;5050641;28;20370;-60
2023/04/06 00:25:30;;;;;;;8.13;5.53;;;;;;;;;;5050654;28;21090;-60
2023/04/06 00:27:56;;;;;;;11.97;6.60;;;;;;;;;;5050300;28;20593;-61
2023/04/06 00:30:22;;;;;;;9.80;5.87;;;;;;;;;;5050393;28;20287;-61
2023/04/06 00:32:48;;;;;;;7.63;5.90;;;;;;;;;;5050051;28;20280;-61
2023/04/06 00:35:15;;;;;;;10.20;6.40;;;;;;;;;;5049855;28;20307;-60
2023/04/06 00:37:41;;;;;;;11.13;5.90;;;;;;;;;;5050030;28;20041;-61
2023/04/06 00:40:08;;;;;;;14.73;6.63;;;;;;;;;;5049519;28;20323;-61
2023/04/06 00:42:34;;;;;;;10.97;5.77;;;;;;;;;;5050074;28;20279;-60
2023/04/06 00:45:01;;;;;;;12.07;6.40;;;;;;;;;;5050005;28;20287;-60
2023/04/06 00:47:27;;;;;;;12.83;6.70;;;;;;;;;;5049031;28;20349;-61
2023/04/06 00:49:54;;;;;;;9.03;5.93;;;;;;;;;;5048693;28;20645;-61
2023/04/06 00:52:21;;;;;;;13.53;7.00;;;;;;;;;;5049955;28;20297;-60
2023/04/06 00:54:47;;;;;;;8.93;5.83;;;;;;;;;;5049197;28;20681;-60
2023/04/06 00:57:13;;;;;;;11.10;6.87;;;;;;;;;;5049718;28;20349;-60
2023/04/06 00:59:40;;;;;;;9.67;6.40;;;;;;;;;;5049894;28;20357;-60
2023/04/06 01:02:06;;;;;;;13.87;6.97;;;;;;;;;;5049610;28;20375;-60
2023/04/06 01:04:32;;;;;;;12.57;7.17;;;;;;;;;;5050100;28;20330;-61
2023/04/06 01:06:58;;;;;;;11.43;6.10;;;;;;;;;;5049742;28;20295;-60
2023/04/06 01:09:25;;;;;;;12.47;6.97;;;;;;;;;;5049587;28;20292;-61
2023/04/06 01:11:51;;;;;;;9.53;6.77;;;;;;;;;;5049537;28;20348;-60
2023/04/06 01:14:17;;;;;;;10.83;7.23;;;;;;;;;;5049111;28;20318;-60
2023/04/06 01:16:43;;;;;;;17.40;7.53;;;;;;;;;;5050048;28;20699;-60
2023/04/06 01:19:12;;;;;;;10.40;6.30;;;;;;;;;;5049206;28;20283;-60
2023/04/06 01:21:38;;;;;;;12.27;6.73;;;;;;;;;;5049505;28;20292;-60
2023/04/06 01:24:05;;;;;;;11.73;7.10;;;;;;;;;;5049592;28;20291;-60
2023/04/06 01:26:31;;;;;;;11.97;6.87;;;;;;;;;;5049403;28;20299;-60
2023/04/06 01:28:57;;;;;;;12.63;6.93;;;;;;;;;;5048661;28;20295;-60
2023/04/06 01:31:23;;;;;;;13.63;7.20;;;;;;;;;;5049520;28;20306;-60
2023/04/06 01:33:50;;;;;;;9.93;6.30;;;;;;;;;;5049432;28;20662;-60
2023/04/06 01:36:17;;;;;;;9.60;7.17;;;;;;;;;;5049094;28;20347;-61
2023/04/06 01:38:43;;;;;;;16.43;7.70;;;;;;;;;;5048952;28;20307;-61
2023/04/06 01:41:09;;;;;;;11.47;7.13;;;;;;;;;;5049268;28;20287;-61
2023/04/06 01:43:35;;;;;;;10.13;6.40;;;;;;;;;;5049447;28;20337;-60
2023/04/06 01:46:01;;;;;;;11.00;7.00;;;;;;;;;;5049008;28;20294;-61
2023/04/06 01:48:28;;;;;;;10.83;7.17;;;;;;;;;;5048941;28;20298;-61
2023/04/06 01:50:54;;;;;;;11.37;7.50;;;;;;;;;;5049149;28;20441;-60
2023/04/06 01:53:21;;;;;;;11.43;7.90;;;;;;;;;;5049044;28;20322;-60
2023/04/06 01:55:47;;;;;;;13.57;7.73;;;;;;;;;;5048641;28;20315;-61
2023/04/06 01:58:13;;;;;;;12.03;7.80;;;;;;;;;;5049145;28;20295;-60
2023/04/06 02:00:40;;;;;;;13.67;7.23;;;;;;;;;;5048717;28;20287;-60
2023/04/06 02:03:06;;;;;;;15.23;8.37;;;;;;;;;;5048835;28;20283;-60
2023/04/06 02:05:38;;;;;;;14.23;9.33;;;;;;;;;;5049138;28;20296;-60
2023/04/06 02:08:05;;;;;;;12.13;7.60;;;;;;;;;;5048489;28;20294;-60
2023/04/06 02:10:32;;;;;;;13.47;7.40;;;;;;;;;;5048945;28;20363;-60
2023/04/06 02:12:58;;;;;;;14.10;8.20;;;;;;;;;;5048495;28;20296;-60
2023/04/06 02:15:24;;;;;;;12.67;8.33;;;;;;;;;;5048105;28;20318;-60
2023/04/06 02:17:51;;;;;;;12.27;7.43;;;;;;;;;;5048979;28;20294;-60
2023/04/06 02:20:17;;;;;;;13.43;8.50;;;;;;;;;;5048685;28;20654;-60
2023/04/06 02:22:43;;;;;;;12.33;8.03;;;;;;;;;;5048232;28;20349;-59
2023/04/06 02:25:09;;;;;;;11.03;7.93;;;;;;;;;;5048616;28;20291;-60
2023/04/06 02:27:36;;;;;;;17.90;8.13;;;;;;;;;;5048138;28;20283;-60
2023/04/06 02:30:02;;;;;;;12.30;8.03;;;;;;;;;;5048615;28;20348;-60
2023/04/06 02:32:28;;;;;;;13.30;8.53;;;;;;;;;;5048721;28;20298;-60
2023/04/06 02:34:54;;;;;;;13.63;8.07;;;;;;;;;;5048447;28;20303;-60
2023/04/06 02:37:20;;;;;;;16.37;9.17;;;;;;;;;;5048043;28;20884;-60
2023/04/06 02:39:47;;;;;;;14.17;8.27;;;;;;;;;;5048351;28;20287;-60
2023/04/06 02:42:15;;;;;;;15.80;7.83;;;;;;;;;;5047380;28;20284;-60
2023/04/06 02:44:41;;;;;;;14.77;8.07;;;;;;;;;;5048639;28;20386;-60
2023/04/06 02:47:07;;;;;;;12.17;8.20;;;;;;;;;;5048409;28;20708;-60
2023/04/06 02:49:33;;;;;;;12.83;7.20;;;;;;;;;;5048316;28;20291;-60
2023/04/06 02:52:00;;;;;;;16.73;8.23;;;;;;;;;;5047968;28;20288;-59
2023/04/06 02:54:26;;;;;;;14.00;8.60;;;;;;;;;;5048038;28;20761;-59
2023/04/06 02:56:52;;;;;;;15.20;8.07;;;;;;;;;;5049308;28;20681;-59
2023/04/06 02:59:18;;;;;;;14.90;8.43;;;;;;;;;;5051868;28;20287;-59
2023/04/06 03:01:45;;;;;;;15.27;8.30;;;;;;;;;;5051713;28;20294;-60
2023/04/06 03:04:11;;;;;;;13.20;8.57;;;;;;;;;;5051720;28;20284;-59
2023/04/06 03:06:37;;;;;;;12.73;8.10;;;;;;;;;;5052125;28;20279;-59
2023/04/06 03:09:03;;;;;;;14.50;8.60;;;;;;;;;;5051791;28;20291;-59
2023/04/06 03:11:30;;;;;;;16.80;8.97;;;;;;;;;;5051777;28;20295;-59
2023/04/06 03:13:56;;;;;;;15.10;9.13;;;;;;;;;;5051121;28;20337;-59
2023/04/06 03:16:22;;;;;;;14.13;8.70;;;;;;;;;;5067015;28;20682;-59
2023/04/06 03:18:48;;;;;;;15.00;10.13;;;;;;;;;;5051824;28;20284;-60
2023/04/06 03:21:19;;;;;;;15.63;8.63;;;;;;;;;;5051983;28;20295;-59
2023/04/06 03:23:45;;;;;;;13.87;9.43;;;;;;;;;;5051485;28;20322;-59
2023/04/06 03:26:11;;;;;;;14.43;8.77;;;;;;;;;;5051669;28;20345;-59
2023/04/06 03:28:37;;;;;;;15.50;9.07;;;;;;;;;;5051369;28;20374;-59
2023/04/06 03:31:04;;;;;;;16.77;9.40;;;;;;;;;;5051560;28;20280;-60
2023/04/06 03:33:30;;;;;;;14.67;9.50;;;;;;;;;;5051159;28;20430;-60
2023/04/06 03:35:56;;;;;;;15.83;9.10;;;;;;;;;;5051185;28;20315;-60
2023/04/06 03:38:22;;;;;;;14.00;9.23;;;;;;;;;;5051157;28;20674;-59
2023/04/06 03:40:48;;;;;;;16.67;10.43;;;;;;;;;;5051396;28;20291;-59
2023/04/06 03:43:14;;;;;;;18.90;11.40;;;;;;;;;;5051131;28;20287;-60
2023/04/06 03:45:40;;;;;;;17.63;10.77;;;;;;;;;;5050971;28;20856;-60
2023/04/06 03:48:06;;;;;;;18.73;12.43;;;;;;;;;;5051354;28;20295;-60
2023/04/06 03:50:32;;;;;;;25.90;14.07;;;;;;;;;;5051767;28;20284;-60
2023/04/06 03:52:58;;;;;;;17.97;11.67;;;;;;;;;;5051134;28;20299;-59
2023/04/06 03:55:24;;;;;;;25.10;14.63;;;;;;;;;;5050966;28;20307;-60
2023/04/06 03:57:50;;;;;;;26.67;13.27;;;;;;;;;;5050975;28;20287;-60
2023/04/06 04:00:16;;;;;;;18.50;12.07;;;;;;;;;;5050627;28;20790;-60
2023/04/06 04:02:42;;;;;;;23.67;13.43;;;;;;;;;;5050853;28;20287;-60
2023/04/06 04:05:09;;;;;;;23.83;13.60;;;;;;;;;;5050863;28;20279;-60
2023/04/06 04:07:35;;;;;;;22.37;13.23;;;;;;;;;;5049738;28;20283;-60
2023/04/06 04:10:01;;;;;;;21.53;13.77;;;;;;;;;;5049917;28;20371;-60
2023/04/06 04:12:27;;;;;;;25.53;12.67;;;;;;;;;;5049759;28;20298;-60
2023/04/06 04:14:53;;;;;;;20.93;11.87;;;;;;;;;;5050190;28;20307;-60
2023/04/06 04:17:19;;;;;;;18.37;12.07;;;;;;;;;;5049396;28;20290;-60
2023/04/06 04:19:45;;;;;;;18.97;10.73;;;;;;;;;;5050175;28;20279;-61
2023/04/06 04:22:11;;;;;;;19.37;11.30;;;;;;;;;;5049954;28;20306;-60
2023/04/06 04:24:37;;;;;;;19.20;10.97;;;;;;;;;;5050312;28;20275;-60
2023/04/06 04:27:04;;;;;;;16.93;10.07;;;;;;;;;;5050650;28;20414;-60
2023/04/06 04:29:30;;;;;;;16.00;10.60;;;;;;;;;;5049848;28;20288;-60
2023/04/06 04:31:56;;;;;;;20.43;11.87;;;;;;;;;;5050095;28;20288;-60
2023/04/06 04:34:26;;;;;;;16.43;10.83;;;;;;;;;;5050270;28;20315;-60
2023/04/06 04:36:52;;;;;;;17.87;10.83;;;;;;;;;;5050510;28;20341;-60
2023/04/06 04:39:18;;;;;;;15.17;10.47;;;;;;;;;;5050490;28;20370;-60
2023/04/06 04:41:45;;;;;;;21.00;11.17;;;;;;;;;;5050403;28;20291;-61
2023/04/06 04:44:11;;;;;;;16.87;9.77;;;;;;;;;;5049983;28;20336;-60
2023/04/06 04:46:37;;;;;;;17.37;10.03;;;;;;;;;;5049533;28;20287;-60
2023/04/06 04:49:03;;;;;;;17.07;11.03;;;;;;;;;;5049856;28;20291;-60
2023/04/06 04:51:30;;;;;;;15.53;10.10;;;;;;;;;;5049928;28;20288;-60
2023/04/06 04:53:56;;;;;;;18.77;10.43;;;;;;;;;;5049840;28;20288;-60
2023/04/06 04:56:22;;;;;;;18.67;10.23;;;;;;;;;;5049659;28;20322;-60
2023/04/06 04:58:49;;;;;;;16.53;10.67;;;;;;;;;;5049300;28;20283;-60
2023/04/06 05:01:15;;;;;;;18.77;10.47;;;;;;;;;;5049606;28;20342;-60
2023/04/06 05:03:41;;;;;;;18.53;9.53;;;;;;;;;;5049757;28;20302;-61
2023/04/06 05:06:07;;;;;;;17.13;10.77;;;;;;;;;;5048183;28;20785;-60
2023/04/06 05:08:34;;;;;;;16.17;9.73;;;;;;;;;;5048745;28;20295;-60
2023/04/06 05:11:00;;;;;;;14.77;9.63;;;;;;;;;;5049190;28;20696;-60
2023/04/06 05:13:26;;;;;;;15.73;10.23;;;;;;;;;;5048810;28;20298;-60
2023/04/06 05:15:52;;;;;;;17.73;9.93;;;;;;;;;;5049317;28;20347;-60
2023/04/06 05:18:18;;;;;;;21.80;10.53;;;;;;;;;;5048363;28;20287;-60
2023/04/06 05:20:45;;;;;;;15.43;9.93;;;;;;;;;;5048851;28;20292;-60
2023/04/06 05:23:11;;;;;;;17.10;9.87;;;;;;;;;;5049034;28;20291;-60
2023/04/06 05:25:37;;;;;;;16.13;9.93;;;;;;;;;;5049103;28;20370;-60
2023/04/06 05:28:03;;;;;;;16.27;10.30;;;;;;;;;;5048770;28;20377;-60
2023/04/06 05:30:29;;;;;;;15.90;10.57;;;;;;;;;;5048818;28;20288;-61
2023/04/06 05:32:56;;;;;;;18.50;10.80;;;;;;;;;;5048930;28;20295;-60
2023/04/06 05:35:22;;;;;;;14.33;9.10;;;;;;;;;;5048284;28;20312;-60
2023/04/06 05:37:48;;;;;;;15.73;10.13;;;;;;;;;;5048725;28;21024;-60
2023/04/06 05:40:14;;;;;;;17.53;10.33;;;;;;;;;;5048840;28;20918;-60
2023/04/06 05:42:42;;;;;;;14.50;10.10;;;;;;;;;;5048667;28;20287;-60
2023/04/06 05:45:08;;;;;;;14.07;9.63;;;;;;;;;;5048361;28;20303;-60
2023/04/06 05:47:35;;;;;;;18.83;9.17;;;;;;;;;;5049039;28;20295;-60
2023/04/06 05:50:01;;;;;;;16.13;9.37;;;;;;;;;;5047667;28;20646;-60
2023/04/06 05:52:27;;;;;;;18.27;9.87;;;;;;;;;;5046980;28;20297;-61
2023/04/06 05:54:53;;;;;;;15.47;8.23;;;;;;;;;;5047366;28;20315;-61
2023/04/06 05:57:19;;;;;;;17.17;8.67;;;;;;;;;;5048829;28;20283;-61
2023/04/06 05:59:45;;;;;;;13.53;8.40;;;;;;;;;;5048163;28;20302;-60
2023/04/06 06:02:11;;;;;;;14.90;8.73;;;;;;;;;;5047918;28;20715;-61
2023/04/06 06:04:37;;;;;;;16.80;9.53;;;;;;;;;;5048569;28;20295;-60
2023/04/06 06:07:03;;;;;;;14.30;7.97;;;;;;;;;;5046773;28;20291;-61
2023/04/06 06:09:29;;;;;;;12.97;8.43;;;;;;;;;;5038061;28;20383;-61
2023/04/06 06:11:56;;;;;;;15.37;8.77;;;;;;;;;;5038271;28;20386;-60
2023/04/06 06:14:22;;;;;;;13.67;8.50;;;;;;;;;;5037858;28;20283;-61
2023/04/06 06:16:48;;;;;;;15.70;8.17;;;;;;;;;;5038746;28;20720;-60
2023/04/06 06:19:14;;;;;;;12.03;9.03;;;;;;;;;;5037984;28;20296;-60
2023/04/06 06:21:40;;;;;;;14.03;8.57;;;;;;;;;;5031164;28;20284;-60
2023/04/06 06:24:07;;;;;;;12.33;8.37;;;;;;;;;;5031529;28;20296;-60
2023/04/06 06:26:36;;;;;;;12.63;8.37;;;;;;;;;;5037555;28;20327;-60
2023/04/06 06:29:04;;;;;;;11.93;8.63;;;;;;;;;;5031773;28;20296;-61
2023/04/06 06:31:30;;;;;;;13.40;7.97;;;;;;;;;;5028580;28;20284;-61
2023/04/06 06:33:56;;;;;;;12.83;8.40;;;;;;;;;;5031760;28;20286;-61
2023/04/06 06:36:22;;;;;;;16.13;10.47;;;;;;;;;;5040998;28;20056;-61
2023/04/06 06:38:48;;;;;;;13.60;8.77;;;;;;;;;;5040588;28;20279;-61
2023/04/06 06:41:14;;;;;;;18.03;8.73;;;;;;;;;;5040408;28;20291;-61
2023/04/06 06:43:40;;;;;;;13.70;8.77;;;;;;;;;;5042331;28;20291;-61
2023/04/06 06:46:06;;;;;;;15.10;7.87;;;;;;;;;;5051443;28;20036;-61
2023/04/06 06:48:33;;;;;;;13.50;8.67;;;;;;;;;;5051745;28;20152;-61
2023/04/06 06:50:59;;;;;;;15.17;9.10;;;;;;;;;;5051502;28;20049;-60
2023/04/06 06:53:25;;;;;;;15.47;9.10;;;;;;;;;;5051204;28;20305;-60
2023/04/06 06:55:51;;;;;;;17.17;8.70;;;;;;;;;;5051779;28;20465;-60
2023/04/06 06:58:20;;;;;;;14.93;9.37;;;;;;;;;;5051858;28;20098;-60
2023/04/06 07:00:46;;;;;;;14.30;9.00;;;;;;;;;;5051694;28;20056;-60
2023/04/06 07:03:12;;;;;;;13.97;9.60;;;;;;;;;;5051392;28;20075;-60
2023/04/06 07:05:38;;;;;;;15.27;8.53;;;;;;;;;;5043191;28;20141;-60
2023/04/06 07:08:04;;;;;;;15.90;8.10;;;;;;;;;;5043286;28;20128;-60
2023/04/06 07:10:30;;;;;;;17.63;9.00;;;;;;;;;;5049763;28;20053;-60
2023/04/06 07:12:56;;;;;;;13.97;8.90;;;;;;;;;;5039025;28;20038;-59
2023/04/06 07:15:22;;;;;;;14.70;10.40;;;;;;;;;;5039988;28;20124;-60
2023/04/06 07:17:49;;;;;;;13.90;8.90;;;;;;;;;;5040530;28;20121;-60
2023/04/06 07:20:15;;;;;;;15.70;9.83;;;;;;;;;;5038437;28;20211;-60
2023/04/06 07:22:44;;;;;;;14.70;9.53;;;;;;;;;;5041088;28;20049;-60
2023/04/06 07:25:10;;;;;;;15.03;9.50;;;;;;;;;;5035785;28;20594;-60
2023/04/06 07:27:36;;;;;;;15.40;10.67;;;;;;;;;;5031184;28;20084;-60
2023/04/06 07:30:02;;;;;;;18.77;9.97;;;;;;;;;;5030836;28;20045;-61
2023/04/06 07:32:28;;;;;;;14.20;9.40;;;;;;;;;;5030695;28;20060;-61
2023/04/06 07:34:54;;;;;;;16.57;9.43;;;;;;;;;;5029231;28;20136;-61
2023/04/06 07:37:21;;;;;;;15.77;9.73;;;;;;;;;;5029369;28;20413;-61
2023/04/06 07:39:47;;;;;;;14.67;10.33;;;;;;;;;;5029734;28;20057;-61
2023/04/06 07:42:13;;;;;;;17.13;10.57;;;;;;;;;;5029035;28;20041;-61
2023/04/06 07:44:39;;;;;;;14.47;8.97;;;;;;;;;;5029217;28;20044;-61
2023/04/06 07:47:05;;;;;;;16.03;9.93;;;;;;;;;;5029250;28;20128;-61
2023/04/06 07:49:32;;;;;;;16.53;10.53;;;;;;;;;;5029627;28;20649;-61
2023/04/06 07:51:58;;;;;;;15.67;9.60;;;;;;;;;;5029161;28;20080;-61
2023/04/06 07:54:25;;;;;;;15.93;11.17;;;;;;;;;;5028517;28;20726;-60
2023/04/06 07:56:51;;;;;;;15.97;9.97;;;;;;;;;;5029129;28;20053;-60
2023/04/06 07:59:17;;;;;;;17.23;10.87;;;;;;;;;;5029275;28;20056;-60
2023/04/06 08:01:43;;;;;;;14.97;10.33;;;;;;;;;;5029644;28;20183;-61
2023/04/06 08:04:09;;;;;;;13.70;9.10;;;;;;;;;;5029690;28;20081;-61
2023/04/06 08:06:36;;;;;;;17.80;9.87;;;;;;;;;;5030159;28;20111;-61
2023/04/06 08:09:02;;;;;;;19.20;10.83;;;;;;;;;;5030198;28;20053;-61
2023/04/06 08:11:28;;;;;;;18.27;10.93;;;;;;;;;;5029459;28;20041;-61
2023/04/06 08:13:56;;;;;;;17.00;11.37;;;;;;;;;;5030383;28;20049;-61
2023/04/06 08:16:22;;;;;;;15.37;10.37;;;;;;;;;;5030587;28;20057;-61
2023/04/06 08:18:48;;;;;;;18.40;12.73;;;;;;;;;;5030716;28;20558;-61
2023/04/06 08:21:14;;;;;;;16.03;9.60;;;;;;;;;;5030380;28;20046;-61
2023/04/06 08:23:40;;;;;;;18.07;10.33;;;;;;;;;;5030644;28;20124;-61
2023/04/06 08:26:06;;;;;;;17.67;10.43;;;;;;;;;;5030220;28;20120;-61
2023/04/06 08:28:34;;;;;;;16.87;10.63;;;;;;;;;;5037186;28;20542;-61
2023/04/06 08:31:03;;;;;;;15.63;9.97;;;;;;;;;;5039864;28;20087;-61
2023/04/06 08:33:29;;;;;;;18.33;9.57;;;;;;;;;;5040184;28;20091;-61
2023/04/06 08:35:55;;;;;;;12.83;9.70;;;;;;;;;;5030320;28;20050;-62
2023/04/06 08:38:21;;;;;;;15.07;9.53;;;;;;;;;;5030158;28;20041;-62
2023/04/06 08:40:49;;;;;;;16.50;10.07;;;;;;;;;;5031122;28;20056;-61
2023/04/06 08:43:17;;;;;;;14.50;9.97;;;;;;;;;;5039607;28;20045;-61
2023/04/06 08:45:43;;;;;;;18.53;10.70;;;;;;;;;;5038213;28;20037;-61
2023/04/06 08:48:09;;;;;;;13.73;9.97;;;;;;;;;;5036860;28;20073;-62
2023/04/06 08:50:36;;;;;;;16.87;10.57;;;;;;;;;;5037463;28;20040;-61
2023/04/06 08:53:02;;;;;;;18.10;11.20;;;;;;;;;;5039955;28;20124;-61
2023/04/06 08:55:28;;;;;;;17.10;10.43;;;;;;;;;;5040463;28;20041;-62
2023/04/06 08:57:55;;;;;;;17.00;11.97;;;;;;;;;;5038147;28;20049;-61
2023/04/06 09:00:21;;;;;;;17.27;10.60;;;;;;;;;;5037746;28;20122;-61
2023/04/06 09:02:49;;;;;;;16.97;11.70;;;;;;;;;;5037500;28;20100;-62
2023/04/06 09:05:16;;;;;;;17.63;11.83;;;;;;;;;;5038054;28;20403;-61
2023/04/06 09:07:42;;;;;;;16.03;11.60;;;;;;;;;;5039347;28;20727;-61
2023/04/06 09:10:08;;;;;;;17.37;11.77;;;;;;;;;;5037921;28;20865;-60
2023/04/06 09:12:35;;;;;;;20.00;12.53;;;;;;;;;;5038205;28;20041;-61
2023/04/06 09:15:01;;;;;;;22.40;11.83;;;;;;;;;;5044131;28;20423;-61
2023/04/06 09:17:29;;;;;;;16.67;12.07;;;;;;;;;;5045103;28;20331;-61
2023/04/06 09:19:56;;;;;;;21.57;12.30;;;;;;;;;;5036786;28;20060;-61
2023/04/06 09:22:24;;;;;;;20.17;12.13;;;;;;;;;;5038145;28;20047;-61
2023/04/06 09:24:51;;;;;;;19.03;12.57;;;;;;;;;;5042898;28;20048;-61
2023/04/06 09:27:17;;;;;;;17.93;11.40;;;;;;;;;;5043255;28;20036;-61
2023/04/06 09:29:44;;;;;;;19.20;12.43;;;;;;;;;;5039285;28;20053;-61
2023/04/06 09:32:11;;;;;;;16.13;12.17;;;;;;;;;;5037759;28;20382;-61
2023/04/06 09:34:39;;;;;;;17.63;12.73;;;;;;;;;;5038773;28;20029;-61
2023/04/06 09:37:13;;;;;;;19.63;13.20;;;;;;;;;;5037504;28;20053;-61
2023/04/06 09:39:39;;;;;;;21.67;13.65;;;;;;;;;;5036574;28;20041;-61
2023/04/06 09:42:05;;;;;;;21.50;12.67;;;;;;;;;;5036987;28;20423;-61
2023/04/06 09:44:31;;;;;;;19.80;13.00;;;;;;;;;;5037365;28;20094;-61
2023/04/06 09:46:57;;;;;;;22.30;14.40;;;;;;;;;;5038628;28;20036;-61
2023/04/06 09:49:23;;;;;;;24.23;13.73;;;;;;;;;;5037163;28;20040;-61
2023/04/06 09:51:59;;;;;;;21.03;12.83;;;;;;;;;;5036856;28;20091;-62
2023/04/06 09:54:27;;;;;;;23.87;12.90;;;;;;;;;;5037008;28;20045;-62
2023/04/06 09:56:58;;;;;;;18.83;12.70;;;;;;;;;;5035774;28;20475;-61
2023/04/06 09:59:37;;;;;;;20.10;13.27;;;;;;;;;;5036588;28;20128;-64
2023/04/06 10:02:05;;;;;;;19.07;14.03;;;;;;;;;;5038312;28;20036;-61
2023/04/06 10:04:31;;;;;;;19.00;12.80;;;;;;;;;;5042859;28;20037;-61
2023/04/06 10:06:57;;;;;;;17.87;13.20;;;;;;;;;;5039900;28;20045;-61
2023/04/06 10:09:25;;;;;;;20.53;14.63;;;;;;;;;;5039053;28;20699;-61
2023/04/06 10:11:52;;;;;;;18.77;14.20;;;;;;;;;;5048611;28;20505;-61
2023/04/06 10:14:18;;;;;;;22.43;15.13;;;;;;;;;;5048283;28;20048;-61
2023/04/06 10:16:44;;;;;;;23.53;14.47;;;;;;;;;;5048262;28;20859;-61
2023/04/06 10:19:14;;;;;;;24.47;15.07;;;;;;;;;;5048242;28;20063;-61
2023/04/06 10:21:40;;;;;;;18.33;14.70;;;;;;;;;;5048658;28;20037;-61
2023/04/06 10:24:13;;;;;;;23.23;14.60;;;;;;;;;;5048080;28;20045;-61
2023/04/06 10:26:39;;;;;;;20.40;14.85;;;;;;;;;;5048529;28;20605;-61
2023/04/06 10:29:06;;;;;;;22.70;15.97;;;;;;;;;;5048145;28;20610;-61
2023/04/06 10:31:32;;;;;;;23.50;16.53;;;;;;;;;;5048250;28;20045;-60
2023/04/06 10:33:59;;;;;;;21.83;15.73;;;;;;;;;;5048059;28;20076;-61
2023/04/06 10:36:27;;;;;;;24.13;16.13;;;;;;;;;;5048233;28;20052;-61
2023/04/06 10:39:00;;;;;;;21.00;15.27;;;;;;;;;;5048123;28;20049;-61
2023/04/06 10:41:37;;;;;;;24.07;15.83;;;;;;;;;;5046453;28;20061;-61
2023/04/06 10:44:03;;;;;;;18.97;14.70;;;;;;;;;;5048103;28;20415;-61
2023/04/06 10:46:30;;;;;;;23.07;17.03;;;;;;;;;;5047108;28;20071;-61
2023/04/06 10:48:56;;;;;;;19.37;14.43;;;;;;;;;;5046652;28;20045;-61
2023/04/06 10:51:27;;;;;;;20.47;15.80;;;;;;;;;;5047023;28;20461;-61
2023/04/06 10:53:54;;;;;;;24.07;16.63;;;;;;;;;;5051340;28;20060;-62
2023/04/06 10:56:22;;;;;;;28.37;17.07;;;;;;;;;;5054027;28;20049;-61
2023/04/06 10:58:49;;;;;;;26.70;17.07;;;;;;;;;;5049064;28;20041;-61
2023/04/06 11:01:16;;;;;;;21.83;17.60;;;;;;;;;;5049109;28;20087;-61
2023/04/06 11:03:43;;;;;;;27.90;18.87;;;;;;;;;;5050210;28;20087;-61
2023/04/06 11:06:10;;;;;;;33.43;20.13;;;;;;;;;;5049303;28;20076;-61
2023/04/06 11:08:37;;;;;;;31.07;18.63;;;;;;;;;;5048985;28;20045;-61
2023/04/06 11:11:18;;;;;;;25.17;17.43;;;;;;;;;;5047305;28;20454;-61
2023/04/06 11:13:54;;;;;;;25.93;19.30;;;;;;;;;;5047292;28;20049;-61
2023/04/06 11:16:25;;;;;;;25.93;18.67;;;;;;;;;;5047226;28;20049;-61
2023/04/06 11:18:56;;;;;;;26.10;19.53;;;;;;;;;;5048652;28;20075;-61
2023/04/06 11:21:35;;;;;;;26.27;18.63;;;;;;;;;;5050213;28;20041;-61
2023/04/06 11:24:07;;;;;;;23.40;18.53;;;;;;;;;;5049593;28;20128;-61
2023/04/06 11:26:37;;;;;;;26.73;19.20;;;;;;;;;;5051777;28;20061;-61
2023/04/06 11:29:03;;;;;;;27.13;18.53;;;;;;;;;;5050729;28;20063;-61
2023/04/06 11:31:29;;;;;;;23.57;18.33;;;;;;;;;;5050635;28;20407;-61
2023/04/06 11:33:56;;;;;;;24.73;17.87;;;;;;;;;;5050999;28;20472;-61
2023/04/06 11:36:22;;;;;;;26.03;19.10;;;;;;;;;;5050934;28;20110;-61
2023/04/06 11:38:48;;;;;;;24.40;17.37;;;;;;;;;;5051086;28;20127;-61
2023/04/06 11:41:14;;;;;;;28.40;18.17;;;;;;;;;;5051121;28;20528;-61
2023/04/06 11:43:47;;;;;;;21.57;17.87;;;;;;;;;;5050714;28;20133;-61
2023/04/06 11:46:17;;;;;;;23.73;18.17;;;;;;;;;;5051293;28;20076;-61
2023/04/06 11:48:46;;;;;;;25.47;17.83;;;;;;;;;;5051763;28;20052;-61
2023/04/06 11:51:13;;;;;;;24.87;18.27;;;;;;;;;;5052139;28;20219;-61
2023/04/06 11:53:46;;;;;;;23.57;17.53;;;;;;;;;;5052000;28;20072;-61
2023/04/06 11:56:12;;;;;;;25.92;18.13;;;;;;;;;;5051654;28;20080;-61
2023/04/06 11:58:38;;;;;;;29.17;18.47;;;;;;;;;;5051861;28;20049;-61
2023/04/06 12:01:04;;;;;;;24.43;18.13;;;;;;;;;;5051948;28;20419;-61
2023/04/06 12:03:31;;;;;;;24.60;18.37;;;;;;;;;;5051550;28;20537;-61
2023/04/06 12:05:57;;;;;;;26.80;18.50;;;;;;;;;;5051704;28;20055;-61
2023/04/06 12:08:25;;;;;;;24.43;18.50;;;;;;;;;;5050731;28;20041;-61
2023/04/06 12:10:51;;;;;;;22.57;17.47;;;;;;;;;;5050597;28;20052;-61
2023/04/06 12:13:17;;;;;;;23.83;16.50;;;;;;;;;;5050263;28;20500;-61
2023/04/06 12:15:43;;;;;;;23.00;17.77;;;;;;;;;;5050405;28;20098;-61
2023/04/06 12:18:09;;;;;;;25.63;18.57;;;;;;;;;;5050316;28;20041;-62
2023/04/06 12:20:35;;;;;;;22.37;15.93;;;;;;;;;;5050639;28;20060;-61
2023/04/06 12:23:01;;;;;;;23.47;15.90;;;;;;;;;;5050023;28;20063;-61
2023/04/06 12:25:27;;;;;;;25.83;17.67;;;;;;;;;;5050370;28;20521;-61
2023/04/06 12:27:53;;;;;;;22.50;15.60;;;;;;;;;;5050040;28;20392;-61
2023/04/06 12:30:20;;;;;;;23.53;16.90;;;;;;;;;;5049401;28;20532;-61
2023/04/06 12:32:46;;;;;;;23.97;16.53;;;;;;;;;;5049997;28;20405;-61
2023/04/06 12:35:15;;;;;;;23.67;17.87;;;;;;;;;;5049828;28;20132;-61
2023/04/06 12:37:42;;;;;;;22.33;16.20;;;;;;;;;;5050247;28;20053;-61
2023/04/06 12:40:10;;;;;;;25.60;16.27;;;;;;;;;;5050087;28;20495;-61
2023/04/06 12:42:36;;;;;;;20.60;14.77;;;;;;;;;;5050283;28;20045;-61
2023/04/06 12:45:02;;;;;;;24.20;16.23;;;;;;;;;;5049945;28;20047;-61
2023/04/06 12:47:28;;;;;;;24.37;16.10;;;;;;;;;;5049795;28;20567;-61
2023/04/06 12:49:55;;;;;;;23.77;16.77;;;;;;;;;;5049926;28;20072;-61
2023/04/06 12:52:21;;;;;;;23.10;16.00;;;;;;;;;;5049992;28;20045;-61
2023/04/06 12:54:48;;;;;;;21.53;15.07;;;;;;;;;;5049676;28;20128;-61
2023/04/06 12:57:14;;;;;;;20.13;13.30;;;;;;;;;;5049060;28;20072;-61
2023/04/06 12:59:44;;;;;;;19.63;13.80;;;;;;;;;;5049928;28;20131;-61
2023/04/06 13:02:10;;;;;;;17.70;12.30;;;;;;;;;;5049756;28;20076;-61
2023/04/06 13:04:36;;;;;;;17.23;11.63;;;;;;;;;;5049547;28;20095;-61
2023/04/06 13:07:02;;;;;;;15.17;10.70;;;;;;;;;;5049378;28;20514;-61
2023/04/06 13:09:28;;;;;;;12.83;8.97;;;;;;;;;;5049305;28;20044;-61
2023/04/06 13:11:54;;;;;;;13.47;9.67;;;;;;;;;;5049386;28;20045;-61
2023/04/06 13:14:20;;;;;;;12.83;8.27;;;;;;;;;;5049618;28;20492;-61
2023/04/06 13:16:46;;;;;;;16.00;9.03;;;;;;;;;;5049074;28;20059;-61
2023/04/06 13:19:12;;;;;;;13.13;8.87;;;;;;;;;;5049070;28;20049;-61
2023/04/06 13:21:39;;;;;;;14.40;8.80;;;;;;;;;;5049537;28;20045;-61
2023/04/06 13:24:05;;;;;;;14.03;10.40;;;;;;;;;;5048911;28;20041;-61
2023/04/06 13:26:31;;;;;;;14.93;11.10;;;;;;;;;;5049638;28;20128;-61
2023/04/06 13:28:57;;;;;;;16.87;10.47;;;;;;;;;;5049416;28;20143;-61
2023/04/06 13:31:24;;;;;;;12.97;8.93;;;;;;;;;;5049151;28;20087;-61
2023/04/06 13:33:50;;;;;;;15.90;9.40;;;;;;;;;;5048589;28;20037;-61
2023/04/06 13:36:16;;;;;;;13.93;10.53;;;;;;;;;;5048990;28;20056;-61
2023/04/06 13:38:42;;;;;;;14.90;10.47;;;;;;;;;;5049254;28;20048;-61
2023/04/06 13:41:08;;;;;;;16.37;11.80;;;;;;;;;;5048527;28;20049;-61
2023/04/06 13:43:34;;;;;;;16.60;11.23;;;;;;;;;;5048872;28;20072;-61
2023/04/06 13:46:01;;;;;;;17.47;11.50;;;;;;;;;;5048742;28;20087;-61
2023/04/06 13:48:27;;;;;;;16.83;10.93;;;;;;;;;;5048815;28;20071;-61
2023/04/06 13:50:53;;;;;;;17.47;11.83;;;;;;;;;;5049077;28;20049;-60
2023/04/06 13:53:19;;;;;;;16.83;12.57;;;;;;;;;;5048730;28;20120;-60
2023/04/06 13:55:52;;;;;;;18.60;13.20;;;;;;;;;;5048673;28;20044;-61
2023/04/06 13:58:18;;;;;;;16.52;12.63;;;;;;;;;;5048700;28;20119;-61
2023/04/06 14:00:44;;;;;;;14.70;11.83;;;;;;;;;;5048001;28;20510;-61
2023/04/06 14:03:10;;;;;;;16.83;10.17;;;;;;;;;;5048541;28;20051;-61
2023/04/06 14:05:36;;;;;;;18.03;12.20;;;;;;;;;;5048814;28;20048;-61
2023/04/06 14:08:02;;;;;;;14.20;10.83;;;;;;;;;;5048233;28;20049;-61
2023/04/06 14:10:28;;;;;;;14.67;9.97;;;;;;;;;;5048633;28;20044;-61
2023/04/06 14:12:55;;;;;;;12.57;8.97;;;;;;;;;;5048834;28;20063;-60
2023/04/06 14:15:22;;;;;;;13.93;10.20;;;;;;;;;;5048387;28;20096;-61
2023/04/06 14:17:48;;;;;;;16.43;10.37;;;;;;;;;;5048705;28;20048;-61
2023/04/06 14:20:15;;;;;;;15.60;9.47;;;;;;;;;;5048127;28;20041;-60